KSGH/SGH METAR and TAF weather

Enter ICAO airport designator
Station Type Date Time Source
KSGH METAR 2020/09/18 06:56 UTC NOAA

KSGH 180656Z AUTO 01010KT 10SM BKN047 OVC060 14/11 A3010 RMK AO2 SLP189 T01390106


Station Type Date Time Source
KSGH Decoded METAR 2020/09/18 06:56 UTC NOAA

Springfield, Springfield-Beckley Municipal Airport, OH, United States (KSGH) 39-50-25N 083-50-24W
Sep 18, 2020 - 02:56 AM EDT / 2020.09.18 0656 UTC
Wind: from the N (010 degrees) at 12 MPH (10 KT):0
Visibility: 10 mile(s):0
Sky conditions: overcast
Temperature: 57.0 F (13.9 C)
Dew Point: 51.1 F (10.6 C)
Relative Humidity: 80%
Pressure (altimeter): 30.1 in. Hg (1019 hPa)
ob: KSGH 180656Z AUTO 01010KT 10SM BKN047 OVC060 14/11 A3010 RMK AO2 SLP189 T01390106
cycle: 7

Station Type Date Time Source
KSGH TAF UTC NOAA

Error!

Example: see airport list